HAZ1203 ZUUU-ZGKL
Flight info
| Callsign | HAZ1203 |
|---|---|
| Flight time | 1h 25m |
| Altitude | 35100 |
| Route | IDBOR9X IDBOR B330 SJG SJG9W |
| Aircraft | A320/M-SDE3FGHIRWY/LB1 |
Departure
| Time | 2026-05-07 08:20 |
|---|---|
| Airport | Chengdu Shuangliu International Airport (ZUUU) |
Arrival
| Time | 2026-05-07 09:45 |
|---|---|
| Airport | Guilin Liangjiang International Airport (ZGKL) |
| Time | Latitude | Longitude | Altitude | Speed | Heading |
|---|---|---|---|---|---|
| 2026-05-07 08:16 | 30.56892 | 103.94467 | 1689 ft | 13 kts | 201° |
| 2026-05-07 08:17 | 30.56803 | 103.94428 | 1689 ft | 14 kts | 200° |
| 2026-05-07 08:17 | 30.56711 | 103.94385 | 1689 ft | 14 kts | 201° |
| 2026-05-07 08:17 | 30.56616 | 103.94338 | 1689 ft | 15 kts | 204° |
| 2026-05-07 08:17 | 30.56516 | 103.94292 | 1689 ft | 15 kts | 201° |
| 2026-05-07 08:18 | 30.56414 | 103.94244 | 1689 ft | 16 kts | 202° |
| 2026-05-07 08:18 | 30.56316 | 103.94185 | 1689 ft | 15 kts | 234° |
| 2026-05-07 08:18 | 30.56337 | 103.94064 | 1689 ft | 16 kts | 300° |
| 2026-05-07 08:18 | 30.56432 | 103.94040 | 1689 ft | 15 kts | 20° |
| 2026-05-07 08:19 | 30.56538 | 103.94089 | 1689 ft | 20 kts | 22° |
| 2026-05-07 08:19 | 30.56875 | 103.94250 | 1689 ft | 86 kts | 22° |
| 2026-05-07 08:19 | 30.57629 | 103.94599 | 1690 ft | 145 kts | 20° |
| 2026-05-07 08:19 | 30.58712 | 103.95106 | 1849 ft | 179 kts | 24° |
| 2026-05-07 08:20 | 30.59852 | 103.95632 | 2507 ft | 176 kts | 22° |
| 2026-05-07 08:20 | 30.60936 | 103.96130 | 3348 ft | 166 kts | 24° |
| 2026-05-07 08:20 | 30.62001 | 103.96624 | 3795 ft | 171 kts | 24° |
| 2026-05-07 08:20 | 30.63153 | 103.97163 | 4071 ft | 186 kts | 24° |
| 2026-05-07 08:21 | 30.64417 | 103.97756 | 4294 ft | 206 kts | 24° |
| 2026-05-07 08:21 | 30.65803 | 103.98402 | 4621 ft | 223 kts | 24° |
| 2026-05-07 08:21 | 30.67315 | 103.99106 | 4972 ft | 241 kts | 24° |
| 2026-05-07 08:21 | 30.68817 | 104.00094 | 5332 ft | 257 kts | 41° |
| 2026-05-07 08:22 | 30.69972 | 104.01693 | 5908 ft | 264 kts | 60° |
| 2026-05-07 08:22 | 30.70844 | 104.03565 | 6662 ft | 267 kts | 62° |
| 2026-05-07 08:22 | 30.71695 | 104.05462 | 7448 ft | 269 kts | 62° |
| 2026-05-07 08:22 | 30.72556 | 104.07380 | 8229 ft | 272 kts | 62° |
| 2026-05-07 08:23 | 30.73430 | 104.09315 | 8998 ft | 275 kts | 62° |
| 2026-05-07 08:23 | 30.74325 | 104.11292 | 9764 ft | 280 kts | 62° |
| 2026-05-07 08:23 | 30.75237 | 104.13303 | 10552 ft | 283 kts | 62° |
| 2026-05-07 08:23 | 30.75903 | 104.15429 | 11251 ft | 289 kts | 82° |
| 2026-05-07 08:24 | 30.75739 | 104.17755 | 11941 ft | 296 kts | 107° |
| 2026-05-07 08:24 | 30.74732 | 104.19841 | 12612 ft | 303 kts | 131° |
| 2026-05-07 08:24 | 30.73025 | 104.21278 | 13264 ft | 309 kts | 157° |
| 2026-05-07 08:24 | 30.70908 | 104.21735 | 13916 ft | 312 kts | 184° |
| 2026-05-07 08:25 | 30.68815 | 104.21162 | 14594 ft | 313 kts | 200° |
| 2026-05-07 08:25 | 30.66770 | 104.20319 | 15282 ft | 314 kts | 200° |
| 2026-05-07 08:25 | 30.64697 | 104.19476 | 15946 ft | 316 kts | 200° |
| 2026-05-07 08:25 | 30.62617 | 104.18643 | 16588 ft | 317 kts | 200° |
| 2026-05-07 08:26 | 30.58434 | 104.16991 | 17796 ft | 319 kts | 201° |
| 2026-05-07 08:26 | 30.56347 | 104.16170 | 18364 ft | 321 kts | 201° |
| 2026-05-07 08:26 | 30.54223 | 104.15337 | 18934 ft | 323 kts | 201° |
| 2026-05-07 08:27 | 30.52077 | 104.14494 | 19462 ft | 325 kts | 202° |
| 2026-05-07 08:27 | 30.49932 | 104.13656 | 19985 ft | 327 kts | 202° |
| 2026-05-07 08:27 | 30.47797 | 104.12820 | 20503 ft | 329 kts | 203° |
| 2026-05-07 08:27 | 30.45651 | 104.11874 | 20967 ft | 331 kts | 205° |
| 2026-05-07 08:28 | 30.43486 | 104.10863 | 21175 ft | 342 kts | 206° |
| 2026-05-07 08:28 | 30.41244 | 104.09811 | 21368 ft | 353 kts | 205° |
| 2026-05-07 08:28 | 30.38909 | 104.08717 | 21550 ft | 364 kts | 205° |
| 2026-05-07 08:28 | 30.36536 | 104.07609 | 21720 ft | 374 kts | 205° |
| 2026-05-07 08:29 | 30.34083 | 104.06464 | 21888 ft | 384 kts | 205° |
| 2026-05-07 08:29 | 30.31580 | 104.05299 | 22052 ft | 393 kts | 205° |
| 2026-05-07 08:29 | 30.28922 | 104.04492 | 22265 ft | 406 kts | 189° |
| 2026-05-07 08:29 | 30.26052 | 104.04705 | 22611 ft | 419 kts | 171° |
| 2026-05-07 08:30 | 30.23305 | 104.05976 | 22981 ft | 431 kts | 153° |
| 2026-05-07 08:30 | 30.20896 | 104.08019 | 23388 ft | 436 kts | 146° |
| 2026-05-07 08:30 | 30.18482 | 104.10212 | 23736 ft | 439 kts | 146° |
| 2026-05-07 08:30 | 30.16095 | 104.12382 | 24088 ft | 441 kts | 146° |
| 2026-05-07 08:31 | 30.13687 | 104.14560 | 24451 ft | 443 kts | 146° |
| 2026-05-07 08:31 | 30.11245 | 104.16760 | 24782 ft | 446 kts | 146° |
| 2026-05-07 08:31 | 30.08773 | 104.18979 | 25117 ft | 448 kts | 146° |
| 2026-05-07 08:31 | 30.06305 | 104.21192 | 25445 ft | 451 kts | 147° |
| 2026-05-07 08:32 | 30.03851 | 104.23388 | 25759 ft | 453 kts | 147° |
| 2026-05-07 08:32 | 30.01326 | 104.25645 | 26071 ft | 456 kts | 147° |
| 2026-05-07 08:32 | 29.98815 | 104.27888 | 26391 ft | 458 kts | 147° |
| 2026-05-07 08:32 | 29.96311 | 104.30121 | 26708 ft | 460 kts | 147° |
| 2026-05-07 08:33 | 29.93792 | 104.32368 | 27013 ft | 462 kts | 147° |
| 2026-05-07 08:33 | 29.91231 | 104.34650 | 27312 ft | 464 kts | 147° |
| 2026-05-07 08:33 | 29.88658 | 104.36942 | 27604 ft | 467 kts | 147° |
| 2026-05-07 08:33 | 29.86112 | 104.39206 | 27906 ft | 469 kts | 147° |
| 2026-05-07 08:34 | 29.83513 | 104.41517 | 28196 ft | 471 kts | 147° |
| 2026-05-07 08:34 | 29.80910 | 104.43830 | 28491 ft | 473 kts | 147° |
| 2026-05-07 08:34 | 29.78314 | 104.46135 | 28764 ft | 475 kts | 147° |
| 2026-05-07 08:34 | 29.75670 | 104.48483 | 29030 ft | 478 kts | 147° |
| 2026-05-07 08:35 | 29.73062 | 104.50794 | 29279 ft | 480 kts | 147° |
| 2026-05-07 08:35 | 29.70410 | 104.53143 | 29502 ft | 483 kts | 147° |
| 2026-05-07 08:35 | 29.67743 | 104.55506 | 29721 ft | 485 kts | 147° |
| 2026-05-07 08:35 | 29.65045 | 104.57893 | 29939 ft | 488 kts | 148° |
| 2026-05-07 08:36 | 29.62379 | 104.60251 | 30203 ft | 489 kts | 148° |
| 2026-05-07 08:36 | 29.59657 | 104.62656 | 30507 ft | 489 kts | 148° |
| 2026-05-07 08:36 | 29.56982 | 104.65018 | 30820 ft | 489 kts | 148° |
| 2026-05-07 08:36 | 29.54285 | 104.67400 | 31089 ft | 489 kts | 148° |
| 2026-05-07 08:37 | 29.51602 | 104.69766 | 31344 ft | 490 kts | 149° |
| 2026-05-07 08:37 | 29.48877 | 104.72168 | 31593 ft | 491 kts | 149° |
| 2026-05-07 08:37 | 29.46173 | 104.74549 | 31857 ft | 491 kts | 149° |
| 2026-05-07 08:37 | 29.43462 | 104.76932 | 32106 ft | 492 kts | 149° |
| 2026-05-07 08:38 | 29.40770 | 104.79302 | 32349 ft | 492 kts | 149° |
| 2026-05-07 08:38 | 29.38024 | 104.81702 | 32590 ft | 492 kts | 150° |
| 2026-05-07 08:38 | 29.35240 | 104.83929 | 32822 ft | 490 kts | 154° |
| 2026-05-07 08:38 | 29.32357 | 104.85957 | 33085 ft | 486 kts | 158° |
| 2026-05-07 08:39 | 29.29378 | 104.87779 | 33350 ft | 483 kts | 161° |
| 2026-05-07 08:39 | 29.26334 | 104.89386 | 33584 ft | 480 kts | 164° |
| 2026-05-07 08:39 | 29.23260 | 104.90926 | 33812 ft | 481 kts | 164° |
| 2026-05-07 08:39 | 29.20188 | 104.92455 | 33999 ft | 482 kts | 164° |
| 2026-05-07 08:40 | 29.17152 | 104.93974 | 34189 ft | 483 kts | 164° |
| 2026-05-07 08:40 | 29.14036 | 104.95540 | 34393 ft | 484 kts | 164° |
| 2026-05-07 08:40 | 29.10968 | 104.97089 | 34566 ft | 485 kts | 164° |
| 2026-05-07 08:40 | 29.07872 | 104.98653 | 34746 ft | 486 kts | 164° |
| 2026-05-07 08:41 | 29.04784 | 105.00213 | 34939 ft | 486 kts | 164° |
| 2026-05-07 08:41 | 29.01686 | 105.01778 | 35057 ft | 488 kts | 164° |
| 2026-05-07 08:41 | 28.95475 | 105.04909 | 35076 ft | 489 kts | 164° |
| 2026-05-07 08:42 | 28.89231 | 105.08040 | 35082 ft | 489 kts | 164° |
| 2026-05-07 08:42 | 28.83032 | 105.11136 | 35093 ft | 489 kts | 163° |
| 2026-05-07 08:43 | 28.76806 | 105.14357 | 35094 ft | 493 kts | 160° |
| 2026-05-07 08:43 | 28.70735 | 105.18009 | 35095 ft | 494 kts | 159° |
| 2026-05-07 08:44 | 28.64662 | 105.21699 | 35103 ft | 494 kts | 159° |
| 2026-05-07 08:44 | 28.58622 | 105.25356 | 35112 ft | 494 kts | 159° |
| 2026-05-07 08:45 | 28.52546 | 105.29027 | 35123 ft | 495 kts | 159° |
| 2026-05-07 08:45 | 28.46424 | 105.32719 | 35132 ft | 495 kts | 159° |
| 2026-05-07 08:46 | 28.40349 | 105.36378 | 35145 ft | 494 kts | 159° |
| 2026-05-07 08:46 | 28.34289 | 105.40025 | 35152 ft | 495 kts | 159° |
| 2026-05-07 08:47 | 28.28194 | 105.43685 | 35175 ft | 495 kts | 159° |
| 2026-05-07 08:47 | 28.22109 | 105.47336 | 35194 ft | 494 kts | 158° |
| 2026-05-07 08:48 | 28.16029 | 105.50978 | 35195 ft | 494 kts | 158° |
| 2026-05-07 08:48 | 28.09888 | 105.54401 | 35202 ft | 490 kts | 163° |
| 2026-05-07 08:49 | 28.03503 | 105.57011 | 35195 ft | 483 kts | 171° |
| 2026-05-07 08:49 | 27.97035 | 105.58755 | 35196 ft | 477 kts | 176° |
| 2026-05-07 08:50 | 27.90500 | 105.59805 | 35197 ft | 473 kts | 180° |
| 2026-05-07 08:50 | 27.83972 | 105.61151 | 35200 ft | 481 kts | 173° |
| 2026-05-07 08:51 | 27.77522 | 105.63435 | 35194 ft | 489 kts | 165° |
| 2026-05-07 08:51 | 27.71296 | 105.66597 | 35187 ft | 495 kts | 158° |
| 2026-05-07 08:52 | 27.65182 | 105.70156 | 35201 ft | 493 kts | 160° |
| 2026-05-07 08:52 | 27.58981 | 105.73532 | 35214 ft | 493 kts | 160° |
| 2026-05-07 08:53 | 27.52825 | 105.76859 | 35227 ft | 494 kts | 160° |
| 2026-05-07 08:53 | 27.46613 | 105.80210 | 35238 ft | 493 kts | 160° |
| 2026-05-07 08:54 | 27.40429 | 105.83545 | 35240 ft | 492 kts | 160° |
| 2026-05-07 08:54 | 27.34280 | 105.86855 | 35233 ft | 492 kts | 160° |
| 2026-05-07 08:55 | 27.28086 | 105.90185 | 35239 ft | 492 kts | 160° |
| 2026-05-07 08:55 | 27.21907 | 105.93503 | 35242 ft | 492 kts | 160° |
| 2026-05-07 08:56 | 27.15739 | 105.96809 | 35246 ft | 493 kts | 160° |
| 2026-05-07 08:56 | 27.09600 | 106.00375 | 35239 ft | 498 kts | 154° |
| 2026-05-07 08:57 | 27.03988 | 106.04932 | 35231 ft | 505 kts | 143° |
| 2026-05-07 08:57 | 26.99036 | 106.10569 | 35228 ft | 510 kts | 133° |
| 2026-05-07 08:58 | 26.94737 | 106.16871 | 35224 ft | 511 kts | 129° |
| 2026-05-07 08:58 | 26.90490 | 106.23261 | 35223 ft | 511 kts | 130° |
| 2026-05-07 08:59 | 26.86219 | 106.29623 | 35223 ft | 512 kts | 130° |
| 2026-05-07 08:59 | 26.81938 | 106.35961 | 35222 ft | 512 kts | 130° |
| 2026-05-07 09:00 | 26.77658 | 106.42283 | 35221 ft | 511 kts | 130° |
| 2026-05-07 09:00 | 26.73364 | 106.48617 | 35219 ft | 510 kts | 130° |
| 2026-05-07 09:01 | 26.69094 | 106.54907 | 35216 ft | 510 kts | 130° |
| 2026-05-07 09:01 | 26.64811 | 106.61205 | 35213 ft | 510 kts | 130° |
| 2026-05-07 09:02 | 26.60515 | 106.67512 | 35210 ft | 510 kts | 130° |
| 2026-05-07 09:02 | 26.56319 | 106.73897 | 35214 ft | 511 kts | 126° |
| 2026-05-07 09:03 | 26.52757 | 106.80750 | 35219 ft | 513 kts | 118° |
| 2026-05-07 09:03 | 26.49986 | 106.88081 | 35213 ft | 515 kts | 110° |
| 2026-05-07 09:04 | 26.47891 | 106.95706 | 35205 ft | 514 kts | 107° |
| 2026-05-07 09:04 | 26.45860 | 107.03368 | 35198 ft | 515 kts | 108° |
| 2026-05-07 09:05 | 26.43848 | 107.10990 | 35191 ft | 514 kts | 107° |
| 2026-05-07 09:05 | 26.41846 | 107.18645 | 35189 ft | 515 kts | 107° |
| 2026-05-07 09:06 | 26.39837 | 107.26286 | 35183 ft | 514 kts | 107° |
| 2026-05-07 09:06 | 26.37825 | 107.33916 | 35176 ft | 514 kts | 107° |
| 2026-05-07 09:07 | 26.35814 | 107.41520 | 35169 ft | 514 kts | 107° |
| 2026-05-07 09:07 | 26.33798 | 107.49124 | 35158 ft | 513 kts | 107° |
| 2026-05-07 09:08 | 26.31774 | 107.56740 | 35151 ft | 513 kts | 107° |
| 2026-05-07 09:08 | 26.29754 | 107.64323 | 35146 ft | 513 kts | 107° |
| 2026-05-07 09:09 | 26.27727 | 107.71916 | 35146 ft | 512 kts | 108° |
| 2026-05-07 09:09 | 26.25692 | 107.79525 | 35151 ft | 513 kts | 108° |
| 2026-05-07 09:10 | 26.23660 | 107.87090 | 35148 ft | 512 kts | 108° |
| 2026-05-07 09:10 | 26.21641 | 107.94698 | 35141 ft | 513 kts | 107° |
| 2026-05-07 09:11 | 26.20650 | 107.98463 | 34896 ft | 512 kts | 107° |
| 2026-05-07 09:11 | 26.19656 | 108.02228 | 34618 ft | 509 kts | 107° |
| 2026-05-07 09:11 | 26.18660 | 108.05996 | 34339 ft | 505 kts | 107° |
| 2026-05-07 09:11 | 26.17676 | 108.09710 | 34063 ft | 503 kts | 107° |
| 2026-05-07 09:12 | 26.16681 | 108.13458 | 33784 ft | 502 kts | 107° |
| 2026-05-07 09:12 | 26.15689 | 108.17191 | 33502 ft | 502 kts | 107° |
| 2026-05-07 09:12 | 26.14701 | 108.20904 | 33229 ft | 503 kts | 107° |
| 2026-05-07 09:12 | 26.13718 | 108.24598 | 32956 ft | 503 kts | 107° |
| 2026-05-07 09:13 | 26.12728 | 108.28310 | 32684 ft | 505 kts | 107° |
| 2026-05-07 09:13 | 26.11719 | 108.32085 | 32425 ft | 505 kts | 107° |
| 2026-05-07 09:13 | 26.10724 | 108.35807 | 32173 ft | 506 kts | 107° |
| 2026-05-07 09:13 | 26.09718 | 108.39560 | 31923 ft | 506 kts | 107° |
| 2026-05-07 09:14 | 26.08731 | 108.43278 | 31673 ft | 506 kts | 107° |
| 2026-05-07 09:14 | 26.07738 | 108.47035 | 31422 ft | 507 kts | 107° |
| 2026-05-07 09:14 | 26.06751 | 108.50782 | 31169 ft | 508 kts | 107° |
| 2026-05-07 09:14 | 26.05749 | 108.54570 | 30914 ft | 509 kts | 107° |
| 2026-05-07 09:15 | 26.04762 | 108.58297 | 30667 ft | 509 kts | 107° |
| 2026-05-07 09:15 | 26.03752 | 108.62105 | 30412 ft | 510 kts | 107° |
| 2026-05-07 09:15 | 26.02762 | 108.65831 | 30163 ft | 510 kts | 107° |
| 2026-05-07 09:15 | 26.01753 | 108.69620 | 29895 ft | 508 kts | 107° |
| 2026-05-07 09:16 | 26.00761 | 108.73344 | 29398 ft | 503 kts | 107° |
| 2026-05-07 09:16 | 25.99777 | 108.77057 | 28707 ft | 500 kts | 107° |
| 2026-05-07 09:16 | 25.98804 | 108.80741 | 28050 ft | 496 kts | 107° |
| 2026-05-07 09:16 | 25.97839 | 108.84395 | 27416 ft | 491 kts | 107° |
| 2026-05-07 09:17 | 25.96889 | 108.87990 | 26790 ft | 487 kts | 107° |
| 2026-05-07 09:17 | 25.95944 | 108.91554 | 26171 ft | 483 kts | 107° |
| 2026-05-07 09:17 | 25.94993 | 108.95133 | 25551 ft | 478 kts | 107° |
| 2026-05-07 09:17 | 25.94057 | 108.98656 | 24939 ft | 474 kts | 107° |
| 2026-05-07 09:18 | 25.93131 | 109.02138 | 24333 ft | 470 kts | 107° |
| 2026-05-07 09:18 | 25.92215 | 109.05582 | 23741 ft | 466 kts | 107° |
| 2026-05-07 09:18 | 25.91326 | 109.08981 | 23150 ft | 462 kts | 106° |
| 2026-05-07 09:18 | 25.90432 | 109.12422 | 22540 ft | 459 kts | 106° |
| 2026-05-07 09:19 | 25.89554 | 109.15801 | 21957 ft | 455 kts | 106° |
| 2026-05-07 09:19 | 25.88688 | 109.19128 | 21412 ft | 451 kts | 106° |
| 2026-05-07 09:19 | 25.87823 | 109.22443 | 20908 ft | 446 kts | 106° |
| 2026-05-07 09:19 | 25.86961 | 109.25739 | 20395 ft | 442 kts | 106° |
| 2026-05-07 09:20 | 25.86108 | 109.29002 | 19883 ft | 437 kts | 106° |
| 2026-05-07 09:20 | 25.85272 | 109.32188 | 19371 ft | 433 kts | 107° |
| 2026-05-07 09:20 | 25.84439 | 109.35362 | 18868 ft | 429 kts | 107° |
| 2026-05-07 09:20 | 25.83604 | 109.38544 | 18364 ft | 424 kts | 107° |
| 2026-05-07 09:21 | 25.82783 | 109.41665 | 17867 ft | 420 kts | 107° |
| 2026-05-07 09:21 | 25.81981 | 109.44711 | 17385 ft | 415 kts | 107° |
| 2026-05-07 09:21 | 25.81178 | 109.47757 | 16890 ft | 411 kts | 107° |
| 2026-05-07 09:21 | 25.80376 | 109.50796 | 16399 ft | 407 kts | 107° |
| 2026-05-07 09:22 | 25.79582 | 109.53799 | 15936 ft | 403 kts | 107° |
| 2026-05-07 09:22 | 25.78801 | 109.56751 | 15470 ft | 399 kts | 107° |
| 2026-05-07 09:22 | 25.77834 | 109.59599 | 14992 ft | 394 kts | 116° |
| 2026-05-07 09:22 | 25.76493 | 109.62220 | 14525 ft | 389 kts | 125° |
| 2026-05-07 09:23 | 25.74851 | 109.64532 | 14076 ft | 383 kts | 132° |
| 2026-05-07 09:23 | 25.73074 | 109.66704 | 13608 ft | 379 kts | 134° |
| 2026-05-07 09:23 | 25.71280 | 109.68844 | 13124 ft | 375 kts | 134° |
| 2026-05-07 09:23 | 25.69525 | 109.70940 | 12651 ft | 371 kts | 134° |
| 2026-05-07 09:24 | 25.67780 | 109.73035 | 12131 ft | 369 kts | 134° |
| 2026-05-07 09:24 | 25.66056 | 109.75113 | 11639 ft | 365 kts | 133° |
| 2026-05-07 09:24 | 25.64344 | 109.77181 | 11123 ft | 362 kts | 133° |
| 2026-05-07 09:24 | 25.62642 | 109.79237 | 10607 ft | 359 kts | 133° |
| 2026-05-07 09:25 | 25.60992 | 109.81234 | 10301 ft | 348 kts | 132° |
| 2026-05-07 09:25 | 25.59379 | 109.83186 | 10092 ft | 336 kts | 132° |
| 2026-05-07 09:25 | 25.57843 | 109.85046 | 9903 ft | 325 kts | 132° |
| 2026-05-07 09:25 | 25.56324 | 109.86883 | 9713 ft | 314 kts | 132° |
| 2026-05-07 09:26 | 25.54892 | 109.88614 | 9540 ft | 303 kts | 132° |
| 2026-05-07 09:26 | 25.53475 | 109.90327 | 9308 ft | 296 kts | 132° |
| 2026-05-07 09:26 | 25.52087 | 109.92006 | 8956 ft | 294 kts | 132° |
| 2026-05-07 09:26 | 25.50709 | 109.93668 | 8579 ft | 293 kts | 131° |
| 2026-05-07 09:27 | 25.49311 | 109.95293 | 8219 ft | 291 kts | 138° |
| 2026-05-07 09:27 | 25.47634 | 109.96495 | 7948 ft | 288 kts | 156° |
| 2026-05-07 09:27 | 25.43667 | 109.97151 | 7768 ft | 290 kts | 185° |
| 2026-05-07 09:28 | 25.41681 | 109.96963 | 7647 ft | 290 kts | 186° |
| 2026-05-07 09:28 | 25.39657 | 109.96742 | 7521 ft | 289 kts | 186° |
| 2026-05-07 09:28 | 25.37648 | 109.96528 | 7399 ft | 289 kts | 186° |
| 2026-05-07 09:28 | 25.35655 | 109.96323 | 7280 ft | 289 kts | 186° |
| 2026-05-07 09:29 | 25.33639 | 109.96123 | 7158 ft | 287 kts | 186° |
| 2026-05-07 09:29 | 25.31689 | 109.95931 | 7006 ft | 279 kts | 186° |
| 2026-05-07 09:29 | 25.29782 | 109.95748 | 6843 ft | 270 kts | 186° |
| 2026-05-07 09:29 | 25.27934 | 109.95570 | 6686 ft | 262 kts | 186° |
| 2026-05-07 09:30 | 25.26133 | 109.95397 | 6530 ft | 254 kts | 186° |
| 2026-05-07 09:30 | 25.24396 | 109.95231 | 6381 ft | 246 kts | 186° |
| 2026-05-07 09:30 | 25.22706 | 109.95070 | 6235 ft | 239 kts | 186° |
| 2026-05-07 09:30 | 25.21068 | 109.94911 | 6096 ft | 231 kts | 186° |
| 2026-05-07 09:31 | 25.19490 | 109.94759 | 5923 ft | 226 kts | 186° |
| 2026-05-07 09:31 | 25.17906 | 109.94607 | 5876 ft | 227 kts | 186° |
| 2026-05-07 09:31 | 25.16337 | 109.94456 | 5869 ft | 228 kts | 186° |
| 2026-05-07 09:31 | 25.14756 | 109.94303 | 5868 ft | 228 kts | 186° |
| 2026-05-07 09:32 | 25.13168 | 109.94152 | 5870 ft | 227 kts | 186° |
| 2026-05-07 09:32 | 25.11581 | 109.93999 | 5865 ft | 227 kts | 186° |
| 2026-05-07 09:32 | 25.09999 | 109.93848 | 5870 ft | 227 kts | 186° |
| 2026-05-07 09:32 | 25.08430 | 109.93699 | 5872 ft | 227 kts | 186° |
| 2026-05-07 09:33 | 25.06844 | 109.93548 | 5871 ft | 228 kts | 186° |
| 2026-05-07 09:33 | 25.05262 | 109.93398 | 5871 ft | 229 kts | 186° |
| 2026-05-07 09:33 | 25.03658 | 109.93245 | 5880 ft | 228 kts | 186° |
| 2026-05-07 09:33 | 25.02087 | 109.93095 | 5873 ft | 227 kts | 186° |
| 2026-05-07 09:34 | 25.00505 | 109.92946 | 5871 ft | 227 kts | 186° |
| 2026-05-07 09:34 | 24.98927 | 109.92797 | 5867 ft | 227 kts | 186° |
| 2026-05-07 09:34 | 24.97332 | 109.92645 | 5870 ft | 227 kts | 186° |
| 2026-05-07 09:34 | 24.95755 | 109.92494 | 5874 ft | 228 kts | 186° |
| 2026-05-07 09:35 | 24.94183 | 109.92345 | 5867 ft | 227 kts | 186° |
| 2026-05-07 09:35 | 24.92588 | 109.92194 | 5870 ft | 227 kts | 186° |
| 2026-05-07 09:35 | 24.91025 | 109.92162 | 5857 ft | 228 kts | 169° |
| 2026-05-07 09:35 | 24.89570 | 109.92867 | 5864 ft | 229 kts | 140° |
| 2026-05-07 09:36 | 24.88578 | 109.94228 | 5875 ft | 229 kts | 112° |
| 2026-05-07 09:36 | 24.88220 | 109.95897 | 5883 ft | 226 kts | 93° |
| 2026-05-07 09:36 | 24.88110 | 109.97604 | 5828 ft | 220 kts | 92° |
| 2026-05-07 09:36 | 24.88256 | 109.99248 | 5665 ft | 210 kts | 63° |
| 2026-05-07 09:37 | 24.89119 | 110.00455 | 5511 ft | 198 kts | 31° |
| 2026-05-07 09:37 | 24.90350 | 110.00980 | 5353 ft | 187 kts | 6° |
| 2026-05-07 09:37 | 24.91624 | 110.01103 | 5215 ft | 179 kts | 1° |
| 2026-05-07 09:37 | 24.92852 | 110.01186 | 5070 ft | 173 kts | 2° |
| 2026-05-07 09:38 | 24.93995 | 110.01276 | 5042 ft | 152 kts | 3° |
| 2026-05-07 09:38 | 24.95027 | 110.01366 | 4629 ft | 154 kts | 4° |
| 2026-05-07 09:38 | 24.96130 | 110.01462 | 4069 ft | 162 kts | 5° |
| 2026-05-07 09:38 | 24.97255 | 110.01566 | 3613 ft | 163 kts | 5° |
| 2026-05-07 09:39 | 24.98372 | 110.01670 | 3191 ft | 160 kts | 6° |
| 2026-05-07 09:39 | 24.99457 | 110.01779 | 2966 ft | 150 kts | 6° |
| 2026-05-07 09:39 | 25.00429 | 110.01882 | 2932 ft | 133 kts | 6° |
| 2026-05-07 09:39 | 25.01348 | 110.01977 | 2950 ft | 132 kts | 6° |
| 2026-05-07 09:40 | 25.02257 | 110.02070 | 2961 ft | 131 kts | 6° |
| 2026-05-07 09:40 | 25.03174 | 110.02161 | 2966 ft | 131 kts | 7° |
| 2026-05-07 09:40 | 25.04092 | 110.02245 | 2959 ft | 130 kts | 6° |
| 2026-05-07 09:40 | 25.04996 | 110.02325 | 2961 ft | 130 kts | 6° |
| 2026-05-07 09:41 | 25.05901 | 110.02408 | 2963 ft | 130 kts | 6° |
| 2026-05-07 09:41 | 25.06800 | 110.02491 | 2968 ft | 130 kts | 6° |
| 2026-05-07 09:41 | 25.07713 | 110.02577 | 2968 ft | 130 kts | 6° |
| 2026-05-07 09:41 | 25.08628 | 110.02663 | 2973 ft | 130 kts | 6° |
| 2026-05-07 09:42 | 25.09543 | 110.02724 | 2774 ft | 132 kts | 2° |
| 2026-05-07 09:42 | 25.10440 | 110.02772 | 2568 ft | 128 kts | 8° |
| 2026-05-07 09:42 | 25.11336 | 110.02894 | 2577 ft | 130 kts | 8° |
| 2026-05-07 09:42 | 25.12273 | 110.03029 | 2180 ft | 141 kts | 11° |
| 2026-05-07 09:43 | 25.13223 | 110.03148 | 1908 ft | 132 kts | 5° |
| 2026-05-07 09:43 | 25.14127 | 110.03203 | 1805 ft | 131 kts | 5° |
| 2026-05-07 09:43 | 25.15043 | 110.03273 | 1624 ft | 130 kts | 6° |
| 2026-05-07 09:43 | 25.15951 | 110.03359 | 1449 ft | 130 kts | 7° |
| 2026-05-07 09:44 | 25.16851 | 110.03448 | 1279 ft | 129 kts | 7° |
| 2026-05-07 09:44 | 25.17742 | 110.03535 | 1114 ft | 129 kts | 7° |
| 2026-05-07 09:44 | 25.18636 | 110.03622 | 952 ft | 128 kts | 6° |
| 2026-05-07 09:44 | 25.19532 | 110.03702 | 790 ft | 128 kts | 7° |
| 2026-05-07 09:45 | 25.20421 | 110.03786 | 616 ft | 128 kts | 8° |
| 2026-05-07 09:45 | 25.21264 | 110.03881 | 556 ft | 106 kts | 5° |
| 2026-05-07 09:45 | 25.21829 | 110.03934 | 549 ft | 56 kts | 6° |
| 2026-05-07 09:45 | 25.22128 | 110.03964 | 545 ft | 33 kts | 4° |
| 2026-05-07 09:46 | 25.22352 | 110.03986 | 548 ft | 30 kts | 7° |
| 2026-05-07 09:46 | 25.22522 | 110.04013 | 549 ft | 21 kts | 10° |
| 2026-05-07 09:46 | 25.22640 | 110.04084 | 551 ft | 13 kts | 34° |
| 2026-05-07 09:46 | 25.22690 | 110.04138 | 553 ft | 7 kts | 77° |
| 2026-05-07 09:47 | 25.22681 | 110.04185 | 552 ft | 5 kts | 135° |
| 2026-05-07 09:47 | 25.22644 | 110.04201 | 551 ft | 6 kts | 178° |
| 2026-05-07 09:47 | 25.22595 | 110.04197 | 550 ft | 7 kts | 185° |
| 2026-05-07 09:47 | 25.22536 | 110.04192 | 549 ft | 9 kts | 185° |
| 2026-05-07 09:48 | 25.22463 | 110.04185 | 548 ft | 11 kts | 184° |